Terminal Aerodrome Forecast
Issued by NWS

Home | Current Version | Previous Version | Text Only | Print | Product List | Glossary Off
Versions: 1 2 3 4 5 6 7 8 9 10 11 12 13 14 15

000
FTUS43 KTOP 110655 RRA
TAFMHK
TAF
KMHK 110655Z 1107/1206 27005KT P6SM SKC
     FM111200 27008KT P6SM FEW250 WS010/30035KT
     FM111700 30020G27KT P6SM FEW250
     FM120100 34013G23KT P6SM SKC=

USA.gov is the U.S. government's official web portal to all federal, state and local government web resources and services.